Time;durP1;ratioP1;P1;durP2;ratioP2;P2;SDS_P1;SDS_P2;PMS_P1;PMS_P2;Temp;Humidity;BMP_temperature;BMP_pressure;BME280_temperature;BME280_humidity;BME280_pressure;Samples;Min_cycle;Max_cycle;Signal;HPM_P1;HPM_P2
2022/04/18 00:00:05;;;;;;;;;7.33;6.00;;;;;21.47;39.08;101568.98;110733;1258;20305;-55
2022/04/18 00:02:52;;;;;;;;;4.67;4.00;;;;;21.49;39.20;101565.85;110750;1258;19258;-57
2022/04/18 00:05:19;;;;;;;;;6.00;6.00;;;;;21.48;39.13;101567.02;110730;1258;19321;-54
2022/04/18 00:07:47;;;;;;;;;6.00;5.00;;;;;21.49;39.03;101567.33;110731;1258;20309;-53
2022/04/18 00:10:14;;;;;;;;;10.00;8.00;;;;;21.50;39.19;101567.23;110744;1258;19420;-53
2022/04/18 00:12:42;;;;;;;;;6.00;5.00;;;;;21.49;39.02;101571.11;110753;1258;19689;-60
2022/04/18 00:15:09;;;;;;;;;5.00;5.00;;;;;21.48;39.05;101569.40;110741;1258;23305;-55
2022/04/18 00:17:37;;;;;;;;;5.00;5.00;;;;;21.48;38.94;101563.81;110683;1258;19233;-55
2022/04/18 00:20:04;;;;;;;;;8.00;5.00;;;;;21.48;39.15;101561.64;110749;1258;19582;-55
2022/04/18 00:22:32;;;;;;;;;5.33;5.33;;;;;21.48;39.20;101562.52;110727;1258;20434;-55
2022/04/18 00:24:59;;;;;;;;;6.00;5.00;;;;;21.47;38.97;101561.15;110709;1258;22946;-56
2022/04/18 00:27:26;;;;;;;;;5.33;5.00;;;;;21.47;39.26;101560.84;110781;1258;19459;-55
2022/04/18 00:29:54;;;;;;;;;7.33;6.00;;;;;21.48;39.24;101559.67;110703;1258;20293;-59
2022/04/18 00:32:21;;;;;;;;;6.00;5.50;;;;;21.46;39.29;101551.99;110612;1258;19935;-54
2022/04/18 00:34:48;;;;;;;;;6.00;5.67;;;;;21.46;39.25;101552.73;110740;1258;23793;-56
2022/04/18 00:37:15;;;;;;;;;4.67;4.00;;;;;21.45;39.15;101547.96;110712;1258;20324;-53
2022/04/18 00:39:43;;;;;;;;;5.00;5.00;;;;;21.46;39.37;101554.58;110732;1258;19733;-56
2022/04/18 00:42:10;;;;;;;;;5.00;5.00;;;;;21.46;39.21;101558.20;110779;1258;19470;-54
2022/04/18 00:44:37;;;;;;;;;5.33;5.00;;;;;21.48;39.27;101555.62;110727;1258;20231;-52
2022/04/18 00:47:05;;;;;;;;;5.00;5.00;;;;;21.47;39.26;101556.27;110698;1258;19219;-51
2022/04/18 00:49:34;;;;;;;;;8.00;5.33;;;;;21.47;39.16;101552.48;110619;1258;19636;-57
2022/04/18 00:52:01;;;;;;;;;5.00;5.00;;;;;21.47;39.35;101548.79;110496;1261;20169;-56
2022/04/18 00:54:28;;;;;;;;;6.00;4.00;;;;;21.45;39.44;101548.61;110772;1258;19237;-55
2022/04/18 00:56:56;;;;;;;;;5.33;5.00;;;;;21.46;39.22;101550.90;110732;1258;19483;-55
2022/04/18 00:59:23;;;;;;;;;5.00;5.00;;;;;21.44;39.34;101546.80;110763;1258;23401;-53
2022/04/18 01:01:50;;;;;;;;;5.67;5.00;;;;;21.45;39.19;101545.20;110721;1258;19367;-55
2022/04/18 01:04:18;;;;;;;;;4.00;4.00;;;;;21.45;39.24;101542.36;110744;1258;19571;-57
2022/04/18 01:06:45;;;;;;;;;5.00;5.00;;;;;21.44;39.23;101533.52;110744;1258;20252;-57
2022/04/18 01:09:13;;;;;;;;;5.00;5.00;;;;;21.43;39.41;101533.41;110745;1258;23624;-55
2022/04/18 01:11:40;;;;;;;;;5.50;5.00;;;;;21.43;39.34;101533.05;110690;1258;19420;-55
2022/04/18 01:14:08;;;;;;;;;5.00;4.33;;;;;21.44;39.26;101531.90;110418;1259;24074;-55
2022/04/18 01:16:35;;;;;;;;;6.00;5.00;;;;;21.43;39.23;101530.30;110770;1258;22936;-56
2022/04/18 01:19:02;;;;;;;;;5.00;5.00;;;;;21.43;39.33;101530.85;110712;1258;19656;-58
2022/04/18 01:21:30;;;;;;;;;5.00;5.00;;;;;21.43;39.23;101527.61;110788;1258;21829;-53
2022/04/18 01:23:57;;;;;;;;;4.00;4.00;;;;;21.43;39.47;101528.70;110725;1257;22832;-53
2022/04/18 01:29:09;;;;;;;;;4.67;4.00;;;;;21.42;39.31;101525.97;110721;1258;20448;-56
2022/04/18 01:31:36;;;;;;;;;4.33;4.33;;;;;21.42;39.55;101523.93;110717;1258;19198;-57
2022/04/18 01:34:04;;;;;;;;;5.00;5.00;;;;;21.41;39.35;101522.75;110754;1258;19774;-55
2022/04/18 01:36:31;;;;;;;;;6.00;6.00;;;;;21.42;39.45;101522.59;110754;1259;20348;-53
2022/04/18 01:38:58;;;;;;;;;8.00;6.00;;;;;21.41;39.32;101517.61;110726;1258;19171;-55
2022/04/18 01:41:26;;;;;;;;;5.00;4.00;;;;;21.43;39.33;101518.13;110731;1258;22754;-54
2022/04/18 01:43:53;;;;;;;;;5.67;5.33;;;;;21.44;39.20;101512.64;110430;1260;20272;-57
2022/04/18 01:46:20;;;;;;;;;5.00;5.00;;;;;21.43;39.29;101511.95;110739;1258;23157;-55
2022/04/18 01:48:50;;;;;;;;;5.00;5.00;;;;;21.43;39.30;101511.11;110763;1258;19503;-56
2022/04/18 01:51:18;;;;;;;;;5.00;5.00;;;;;21.41;39.37;101508.88;110748;1257;22829;-56
2022/04/18 01:53:45;;;;;;;;;8.00;6.00;;;;;21.41;39.38;101506.56;110728;1258;19233;-57
2022/04/18 01:56:13;;;;;;;;;6.00;6.00;;;;;21.41;39.44;101505.10;110740;1258;23629;-52
2022/04/18 01:58:40;;;;;;;;;6.00;5.00;;;;;21.42;39.51;101502.48;110757;1258;20709;-55
2022/04/18 02:01:07;;;;;;;;;5.00;5.00;;;;;21.43;39.51;101499.98;110745;1258;23556;-54
2022/04/18 02:03:35;;;;;;;;;6.00;5.00;;;;;21.44;39.40;101501.45;110770;1258;19475;-58
2022/04/18 02:06:02;;;;;;;;;7.33;5.67;;;;;21.43;39.31;101497.77;110715;1258;20181;-56
2022/04/18 02:08:29;;;;;;;;;5.33;5.33;;;;;21.42;39.20;101497.91;110726;1258;21490;-55
2022/04/18 02:10:57;;;;;;;;;5.00;5.00;;;;;21.41;39.29;101496.17;110765;1258;19533;-58
2022/04/18 02:13:24;;;;;;;;;4.00;4.00;;;;;21.42;39.41;101496.07;110725;1259;20604;-54
2022/04/18 02:15:52;;;;;;;;;4.33;4.33;;;;;21.43;39.49;101495.77;110718;1258;23472;-55
2022/04/18 02:18:20;;;;;;;;;5.00;5.00;;;;;21.41;39.29;101492.79;110757;1258;26236;-54
2022/04/18 02:20:47;;;;;;;;;5.33;5.00;;;;;21.40;39.53;101491.77;110777;1258;20272;-54
2022/04/18 02:23:14;;;;;;;;;5.33;5.00;;;;;21.40;39.31;101496.66;110690;1257;19470;-53
2022/04/18 02:25:42;;;;;;;;;5.67;5.67;;;;;21.38;39.53;101492.50;110756;1258;19467;-55
2022/04/18 02:28:09;;;;;;;;;4.33;4.33;;;;;21.39;39.56;101492.42;110746;1258;20291;-54
2022/04/18 02:30:36;;;;;;;;;6.00;4.33;;;;;21.39;39.42;101490.28;110783;1258;19085;-56
2022/04/18 02:33:04;;;;;;;;;5.00;5.00;;;;;21.39;39.42;101486.20;110732;1258;23607;-56
2022/04/18 02:35:31;;;;;;;;;6.00;5.00;;;;;21.40;39.53;101487.63;110693;1258;20309;-55
2022/04/18 02:37:58;;;;;;;;;4.00;4.00;;;;;21.40;39.43;101490.14;110736;1258;21243;-56
2022/04/18 02:40:26;;;;;;;;;6.67;5.33;;;;;21.39;39.46;101486.58;110657;1258;19966;-51
2022/04/18 02:42:53;;;;;;;;;5.33;5.00;;;;;21.39;39.55;101486.27;110757;1258;20371;-54
2022/04/18 02:45:20;;;;;;;;;6.00;5.67;;;;;21.39;39.36;101483.88;110771;1258;19140;-55
2022/04/18 02:47:48;;;;;;;;;6.67;5.67;;;;;21.38;39.56;101487.59;110698;1258;19931;-52
2022/04/18 02:50:15;;;;;;;;;6.00;6.00;;;;;21.38;39.63;101488.10;110712;1258;23234;-54
2022/04/18 02:52:43;;;;;;;;;6.00;6.00;;;;;21.38;39.71;101484.18;110785;1258;19273;-55
2022/04/18 02:55:11;;;;;;;;;6.00;6.00;;;;;21.36;39.45;101479.81;110747;1259;19502;-53
2022/04/18 02:57:39;;;;;;;;;5.00;5.00;;;;;21.35;39.45;101478.85;110774;1258;20255;-54
2022/04/18 03:00:06;;;;;;;;;5.67;5.00;;;;;21.37;39.67;101478.63;110680;1258;19295;-53
2022/04/18 03:02:33;;;;;;;;;6.00;6.00;;;;;21.37;39.53;101479.03;110624;1258;22889;-57
2022/04/18 03:05:00;;;;;;;;;5.00;5.00;;;;;21.36;39.45;101478.36;110705;1258;20269;-57
2022/04/18 03:07:28;;;;;;;;;5.33;5.33;;;;;21.38;39.38;101476.85;110738;1258;19873;-55
2022/04/18 03:09:55;;;;;;;;;5.00;5.00;;;;;21.39;39.48;101479.31;110753;1258;19517;-52
2022/04/18 03:12:22;;;;;;;;;5.00;5.00;;;;;21.39;39.42;101481.35;110755;1258;20401;-53
2022/04/18 03:14:50;;;;;;;;;5.33;5.33;;;;;21.36;39.66;101481.63;110757;1258;19198;-56
2022/04/18 03:17:17;;;;;;;;;4.50;4.50;;;;;21.36;39.55;101474.70;110731;1258;23630;-54
2022/04/18 03:19:44;;;;;;;;;4.33;4.33;;;;;21.37;39.43;101473.71;110736;1258;20177;-56
2022/04/18 03:22:12;;;;;;;;;5.00;5.00;;;;;21.37;39.39;101473.20;110749;1258;19290;-54
2022/04/18 03:24:39;;;;;;;;;5.00;5.00;;;;;21.37;39.49;101467.75;110777;1258;23640;-54
2022/04/18 03:27:06;;;;;;;;;8.00;7.33;;;;;21.38;39.38;101466.68;110723;1258;20454;-53
2022/04/18 03:29:34;;;;;;;;;6.00;5.00;;;;;21.38;39.63;101464.20;110724;1258;22511;-59
2022/04/18 03:32:01;;;;;;;;;6.00;5.00;;;;;21.37;39.46;101464.23;110713;1259;19764;-54
2022/04/18 03:34:29;;;;;;;;;5.00;5.00;;;;;21.38;39.37;101463.41;110764;1258;20443;-54
2022/04/18 03:39:54;;;;;;;;;4.00;4.00;;;;;21.37;39.59;101468.40;110773;1258;19618;-53
2022/04/18 03:42:29;;;;;;;;;6.67;6.00;;;;;21.37;39.66;101467.89;110781;1258;20390;-53
2022/04/18 03:44:56;;;;;;;;;4.00;4.00;;;;;21.38;39.62;101463.94;110739;1258;23614;-53
2022/04/18 03:47:24;;;;;;;;;5.67;5.00;;;;;21.38;39.52;101462.02;110724;1258;19553;-56
2022/04/18 03:49:51;;;;;;;;;8.00;6.00;;;;;21.37;39.55;101458.48;110770;1258;20439;-54
2022/04/18 03:52:19;;;;;;;;;5.00;5.00;;;;;21.36;39.63;101455.23;110731;1258;21035;-54
2022/04/18 03:54:46;;;;;;;;;5.50;5.00;;;;;21.35;39.49;101458.25;110799;1258;19646;-58
2022/04/18 03:57:14;;;;;;;;;5.00;5.00;;;;;21.35;39.69;101451.58;110703;1258;21249;-54
2022/04/18 03:59:41;;;;;;;;;5.67;5.00;;;;;21.34;39.53;101447.35;110777;1258;19297;-53
2022/04/18 04:02:09;;;;;;;;;6.00;5.00;;;;;21.32;39.53;101451.09;110751;1258;19660;-55
2022/04/18 04:04:36;;;;;;;;;5.00;4.00;;;;;21.34;39.57;101452.89;110731;1258;23424;-54
2022/04/18 04:07:04;;;;;;;;;5.33;5.33;;;;;21.33;39.64;101454.06;110706;1258;19214;-55
2022/04/18 04:09:32;;;;;;;;;5.33;5.00;;;;;21.35;39.56;101453.59;110765;1258;22454;-54
2022/04/18 04:11:59;;;;;;;;;4.00;4.00;;;;;21.34;39.53;101452.39;110777;1259;20295;-58
2022/04/18 04:14:27;;;;;;;;;5.00;5.00;;;;;21.33;39.49;101449.35;110651;1258;19200;-50
2022/04/18 04:16:54;;;;;;;;;5.00;5.00;;;;;21.33;39.58;101452.63;110628;1258;20760;-55
2022/04/18 04:19:21;;;;;;;;;6.00;5.33;;;;;21.34;39.43;101452.70;110690;1258;24027;-56
2022/04/18 04:21:49;;;;;;;;;7.00;6.00;;;;;21.33;39.49;101453.95;110767;1258;19184;-53
2022/04/18 04:24:16;;;;;;;;;5.00;5.00;;;;;21.33;39.44;101456.30;110745;1258;20888;-57
2022/04/18 04:26:44;;;;;;;;;5.00;5.00;;;;;21.36;39.39;101462.02;110733;1258;20242;-58
2022/04/18 04:29:11;;;;;;;;;5.67;5.00;;;;;21.34;39.38;101459.30;110761;1258;19245;-55
2022/04/18 04:31:39;;;;;;;;;6.67;5.33;;;;;21.33;39.44;101456.23;110720;1258;19487;-55
2022/04/18 04:34:06;;;;;;;;;6.00;5.67;;;;;21.32;39.46;101455.31;110515;1258;20135;-58
2022/04/18 04:36:33;;;;;;;;;5.00;5.00;;;;;21.33;39.38;101456.85;110722;1258;19237;-54
2022/04/18 04:39:01;;;;;;;;;5.00;5.00;;;;;21.34;39.51;101460.05;110685;1258;19435;-57
2022/04/18 04:41:28;;;;;;;;;5.00;5.00;;;;;21.34;39.62;101463.27;110682;1258;22509;-57
2022/04/18 04:43:55;;;;;;;;;6.00;6.00;;;;;21.33;39.46;101460.05;110689;1258;19114;-54
2022/04/18 04:46:23;;;;;;;;;5.00;5.00;;;;;21.33;39.42;101461.00;110717;1258;19865;-56
2022/04/18 04:48:50;;;;;;;;;8.00;6.00;;;;;21.34;39.53;101455.31;110771;1258;20422;-54
2022/04/18 04:51:18;;;;;;;;;5.00;5.00;;;;;21.34;39.36;101453.09;110772;1258;19123;-52
2022/04/18 04:53:45;;;;;;;;;6.00;5.00;;;;;21.35;39.53;101451.58;110691;1258;19471;-53
2022/04/18 04:56:12;;;;;;;;;6.00;4.00;;;;;21.38;39.54;101454.52;110709;1258;20319;-51
2022/04/18 04:58:40;;;;;;;;;6.00;6.00;;;;;21.41;39.39;101454.94;110770;1258;20820;-55
2022/04/18 05:01:08;;;;;;;;;8.00;6.67;;;;;21.44;39.38;101455.50;110689;1258;19620;-53
2022/04/18 05:03:35;;;;;;;;;5.00;5.00;;;;;21.42;39.59;101451.72;110731;1258;20255;-56
2022/04/18 05:06:02;;;;;;;;;6.00;5.00;;;;;21.42;39.66;101452.40;110684;1258;19312;-53
2022/04/18 05:08:30;;;;;;;;;5.00;5.00;;;;;21.42;39.70;101455.88;110659;1258;19824;-58
2022/04/18 05:10:59;;;;;;;;;6.00;5.00;;;;;21.44;39.33;101452.94;110702;1258;23039;-57
2022/04/18 05:13:27;;;;;;;;;6.00;5.50;;;;;21.46;39.55;101461.50;110651;1258;19289;-55
2022/04/18 05:15:54;;;;;;;;;6.00;5.00;;;;;21.44;39.38;101458.02;110714;1258;19514;-54
2022/04/18 05:18:21;;;;;;;;;6.33;5.33;;;;;21.45;39.23;101458.46;110733;1258;20240;-55
2022/04/18 05:20:49;;;;;;;;;6.00;5.00;;;;;21.48;39.45;101457.60;110714;1258;19200;-54
2022/04/18 05:23:16;;;;;;;;;8.00;8.00;;;;;21.53;39.34;101455.10;110704;1258;19779;-57
2022/04/18 05:25:43;;;;;;;;;5.00;5.00;;;;;21.55;39.31;101451.02;110742;1258;21495;-57
2022/04/18 05:28:11;;;;;;;;;6.00;5.00;;;;;21.56;39.42;101451.97;110747;1258;19249;-56
2022/04/18 05:30:39;;;;;;;;;5.33;5.33;;;;;21.58;39.22;101452.35;110616;1258;19599;-55
2022/04/18 05:33:07;;;;;;;;;8.00;8.00;;;;;21.58;39.19;101449.23;110647;1258;22639;-59
2022/04/18 05:35:34;;;;;;;;;8.00;6.00;;;;;21.61;38.87;101451.27;110776;1258;19254;-55
2022/04/18 05:38:01;;;;;;;;;5.67;5.00;;;;;21.63;38.73;101451.45;110701;1258;19638;-51
2022/04/18 05:40:29;;;;;;;;;5.00;5.00;;;;;21.63;39.03;101448.91;110665;1258;21711;-52
2022/04/18 05:42:56;;;;;;;;;5.50;5.50;;;;;21.64;38.90;101446.77;110734;1258;19056;-58
2022/04/18 05:45:23;;;;;;;;;5.00;4.67;;;;;21.66;39.05;101450.75;110745;1258;20508;-55
2022/04/18 05:47:51;;;;;;;;;6.00;5.67;;;;;21.70;38.98;101449.05;110697;1258;22535;-56
2022/04/18 05:50:19;;;;;;;;;5.00;5.00;;;;;21.74;38.97;101450.08;110707;1258;23978;-55
2022/04/18 05:52:46;;;;;;;;;6.00;6.00;;;;;21.77;39.19;101450.14;110424;1261;23116;-55
2022/04/18 05:55:14;;;;;;;;;6.00;5.00;;;;;21.80;39.28;101447.95;110676;1258;20575;-55
2022/04/18 05:57:41;;;;;;;;;7.33;6.67;;;;;21.84;39.43;101451.95;110673;1258;22799;-56
2022/04/18 06:00:08;;;;;;;;;5.00;5.00;;;;;21.88;39.62;101450.73;110685;1258;26618;-57
2022/04/18 06:02:36;;;;;;;;;5.00;5.00;;;;;21.93;39.72;101456.02;110666;1258;23036;-55
2022/04/18 06:05:03;;;;;;;;;6.00;5.00;;;;;21.97;39.71;101455.39;110710;1258;19291;-56
2022/04/18 06:07:30;;;;;;;;;4.33;4.33;;;;;21.99;39.76;101451.51;110726;1258;19786;-53
2022/04/18 06:09:58;;;;;;;;;5.00;5.00;;;;;22.01;39.67;101456.23;110717;1258;20251;-56
2022/04/18 06:12:26;;;;;;;;;9.00;7.00;;;;;22.07;39.89;101460.81;110767;1259;19130;-54
2022/04/18 06:14:54;;;;;;;;;6.50;5.50;;;;;22.05;39.95;101455.92;110728;1258;33558;-57
2022/04/18 06:17:21;;;;;;;;;5.00;5.00;;;;;22.02;39.85;101455.78;110441;1258;276142;-54
2022/04/18 06:19:49;;;;;;;;;7.33;6.00;;;;;22.05;40.15;101452.65;110722;1258;19403;-57
2022/04/18 06:22:17;;;;;;;;;5.00;5.00;;;;;22.10;40.27;101456.33;110706;1258;22956;-57
2022/04/18 06:24:44;;;;;;;;;5.67;5.00;;;;;22.14;40.30;101457.19;110661;1258;20821;-53
2022/04/18 06:27:11;;;;;;;;;5.50;5.00;;;;;22.20;40.70;101457.85;110659;1258;19260;-54
2022/04/18 06:29:39;;;;;;;;;6.00;6.00;;;;;22.21;40.59;101456.86;110692;1258;19473;-53
2022/04/18 06:32:06;;;;;;;;;5.00;3.67;;;;;22.26;40.92;101457.14;110689;1259;20270;-60
2022/04/18 06:34:34;;;;;;;;;5.00;5.00;;;;;22.33;41.07;101462.05;110584;1258;22794;-54
2022/04/18 06:37:01;;;;;;;;;7.00;6.00;;;;;22.37;40.84;101459.91;110687;1258;23030;-54
2022/04/18 06:39:28;;;;;;;;;7.00;6.00;;;;;22.39;40.94;101460.25;110771;1258;20392;-54
2022/04/18 06:41:56;;;;;;;;;6.67;6.00;;;;;22.39;41.04;101461.27;110703;1258;19188;-54
2022/04/18 06:44:24;;;;;;;;;7.00;6.00;;;;;22.39;41.03;101459.31;110613;1258;19584;-55
2022/04/18 06:46:51;;;;;;;;;6.00;5.67;;;;;22.40;41.15;101457.20;110738;1258;22749;-52
2022/04/18 06:49:18;;;;;;;;;6.00;5.00;;;;;22.43;41.12;101456.67;110690;1258;19274;-56
2022/04/18 06:51:46;;;;;;;;;6.00;6.00;;;;;22.47;41.20;101459.88;110686;1258;22859;-51
2022/04/18 06:54:13;;;;;;;;;9.00;7.00;;;;;22.50;41.16;101459.39;110642;1258;20323;-54
2022/04/18 06:59:25;;;;;;;;;6.00;5.33;;;;;22.57;41.17;101463.73;110732;1257;22735;-54
2022/04/18 07:01:53;;;;;;;;;6.67;6.67;;;;;22.60;41.08;101456.90;110685;1258;20183;-58
2022/04/18 07:04:20;;;;;;;;;7.00;5.00;;;;;22.62;41.32;101460.80;110685;1258;19191;-57
2022/04/18 07:06:48;;;;;;;;;8.33;5.67;;;;;22.59;41.45;101459.60;110720;1258;23428;-53
2022/04/18 07:09:15;;;;;;;;;6.00;5.33;;;;;22.58;41.51;101457.23;110589;1258;20657;-54
2022/04/18 07:11:45;;;;;;;;;8.67;6.00;;;;;22.56;41.59;101454.48;110668;1258;24176;-56
2022/04/18 07:14:12;;;;;;;;;5.33;5.00;;;;;22.62;41.63;101458.44;110525;1258;24526;-57
2022/04/18 07:16:39;;;;;;;;;5.67;5.67;;;;;22.69;41.59;101453.81;110420;1258;20269;-51
2022/04/18 07:19:07;;;;;;;;;6.00;5.00;;;;;22.64;41.45;101455.02;110659;1258;23130;-55
2022/04/18 07:21:34;;;;;;;;;6.50;6.00;;;;;22.64;41.25;101456.55;110715;1258;21012;-57
2022/04/18 07:24:01;;;;;;;;;6.33;6.00;;;;;22.61;41.10;101460.10;110687;1258;20594;-56
2022/04/18 07:26:28;;;;;;;;;5.50;5.00;;;;;22.58;41.13;101457.67;110637;1258;20819;-55
2022/04/18 07:28:56;;;;;;;;;7.00;6.00;;;;;22.58;41.19;101459.73;110676;1258;19620;-56
2022/04/18 07:31:23;;;;;;;;;6.00;6.00;;;;;22.59;41.14;101450.19;110690;1258;25187;-56
2022/04/18 07:33:50;;;;;;;;;7.00;5.00;;;;;22.61;41.22;101450.89;110731;1258;19356;-54
2022/04/18 07:36:18;;;;;;;;;6.33;6.00;;;;;22.62;41.51;101448.70;110696;1258;23180;-59
2022/04/18 07:38:52;;;;;;;;;6.33;6.00;;;;;22.66;41.01;101447.50;110710;1258;23167;-55
2022/04/18 07:41:19;;;;;;;;;6.00;6.00;;;;;22.64;41.12;101446.52;110692;1258;24288;-53
2022/04/18 07:43:46;;;;;;;;;5.50;5.00;;;;;22.61;41.45;101442.66;110719;1258;19528;-54
2022/04/18 07:46:15;;;;;;;;;6.33;6.00;;;;;22.59;41.40;101443.79;110716;1258;20692;-57
2022/04/18 07:48:42;;;;;;;;;5.00;3.67;;;;;22.61;41.46;101439.34;110827;1258;21602;-52
2022/04/18 07:53:54;;;;;;;;;6.00;5.67;;;;;22.69;41.64;101441.00;110703;1258;21777;-56
2022/04/18 07:56:22;;;;;;;;;4.33;4.33;;;;;22.70;41.44;101440.22;110703;1258;19206;-56
2022/04/18 07:58:50;;;;;;;;;7.67;7.00;;;;;22.72;41.65;101440.36;110611;1258;24248;-52
2022/04/18 08:01:17;;;;;;;;;6.67;5.33;;;;;22.79;42.31;101438.81;110677;1258;20697;-56
2022/04/18 08:03:45;;;;;;;;;7.67;7.67;;;;;22.85;42.71;101437.95;110753;1258;25391;-54
2022/04/18 08:06:12;;;;;;;;;5.33;5.00;;;;;22.90;42.77;101434.69;110768;1258;19843;-54
2022/04/18 08:08:39;;;;;;;;;7.00;6.67;;;;;22.87;42.66;101436.46;110722;1259;22950;-56
2022/04/18 08:11:11;;;;;;;;;8.00;7.00;;;;;22.80;42.04;101439.42;110635;1258;19248;-55
2022/04/18 08:13:38;;;;;;;;;8.00;5.00;;;;;22.68;41.59;101436.39;110546;1258;19431;-55
2022/04/18 08:16:06;;;;;;;;;91.33;67.33;;;;;22.61;40.83;101432.45;110555;1258;20346;-54
2022/04/18 08:18:36;;;;;;;;;176.75;130.75;;;;;22.64;40.58;101429.95;110523;1258;19373;-57
2022/04/18 08:21:03;;;;;;;;;112.25;87.50;;;;;22.65;41.04;101425.63;110534;1258;19712;-56
2022/04/18 08:23:31;;;;;;;;;172.00;124.67;;;;;22.70;41.23;101431.14;110593;1258;20451;-55
2022/04/18 08:25:58;;;;;;;;;199.00;153.75;;;;;22.68;41.20;101428.77;110580;1258;22525;-56
2022/04/18 08:28:26;;;;;;;;;170.33;121.00;;;;;22.68;41.45;101424.55;110625;1259;21345;-59
2022/04/18 08:30:53;;;;;;;;;138.75;107.00;;;;;22.69;41.53;101423.23;110753;1259;24677;-56
2022/04/18 08:33:21;;;;;;;;;124.75;95.75;;;;;22.67;41.53;101418.85;110698;1258;19257;-56
2022/04/18 08:35:48;;;;;;;;;122.75;93.50;;;;;22.69;41.60;101418.63;110703;1258;19800;-55
2022/04/18 08:38:15;;;;;;;;;128.00;92.33;;;;;22.71;41.79;101413.16;110703;1258;20437;-53
2022/04/18 08:40:43;;;;;;;;;122.00;92.00;;;;;22.72;41.84;101417.20;110580;1258;19099;-55
2022/04/18 08:43:10;;;;;;;;;107.50;79.00;;;;;22.70;41.94;101412.86;110596;1258;19523;-57
2022/04/18 08:45:37;;;;;;;;;97.67;70.00;;;;;22.60;41.16;101410.55;110551;1258;20345;-53
2022/04/18 08:53:35;;;;;;;;;82.00;55.00;;;;;22.47;37.81;101395.80;110691;1258;23293;-55
2022/04/18 08:56:02;;;;;;;;;74.00;57.00;;;;;22.41;37.93;101396.64;110651;1258;19008;-54
2022/04/18 08:58:30;;;;;;;;;78.67;55.33;;;;;22.40;37.83;101391.45;110712;1258;21011;-55
2022/04/18 09:00:57;;;;;;;;;68.67;52.67;;;;;22.44;38.09;101389.74;110453;1261;20740;-54
2022/04/18 09:03:24;;;;;;;;;57.50;44.00;;;;;22.46;38.27;101389.39;110808;1258;19364;-55
2022/04/18 09:05:52;;;;;;;;;56.50;42.00;;;;;22.44;36.52;101389.40;110715;1259;20386;-52
2022/04/18 09:08:19;;;;;;;;;59.00;44.33;;;;;22.44;36.80;101385.03;110755;1258;22551;-56
2022/04/18 09:10:46;;;;;;;;;53.00;41.67;;;;;22.41;36.79;101381.17;110732;1258;19417;-55
2022/04/18 09:13:14;;;;;;;;;49.67;37.33;;;;;22.41;36.19;101379.36;110627;1258;19958;-56
2022/04/18 09:15:41;;;;;;;;;48.00;40.00;;;;;22.36;35.48;101379.67;110703;1258;20706;-56
2022/04/18 09:18:08;;;;;;;;;43.00;31.00;;;;;22.34;35.27;101372.52;110669;1258;19219;-56
2022/04/18 09:20:36;;;;;;;;;39.00;31.50;;;;;22.32;34.57;101372.92;110760;1258;19918;-55
2022/04/18 09:23:03;;;;;;;;;35.67;30.33;;;;;22.32;34.17;101373.44;110634;1259;20297;-55
2022/04/18 09:25:30;;;;;;;;;29.33;26.67;;;;;22.28;33.61;101372.11;110630;1258;19228;-55
2022/04/18 09:27:58;;;;;;;;;26.00;23.00;;;;;22.25;32.67;101366.06;110704;1258;19951;-57
2022/04/18 09:30:25;;;;;;;;;36.33;30.67;;;;;22.19;31.96;101358.23;110737;1258;22879;-56
2022/04/18 09:32:52;;;;;;;;;35.00;29.00;;;;;22.20;33.39;101363.30;110703;1258;19278;-59
2022/04/18 09:35:19;;;;;;;;;50.33;42.67;;;;;22.23;33.41;101362.11;110649;1258;23359;-56
2022/04/18 09:37:47;;;;;;;;;4360.00;4360.00;;;;;22.25;33.16;101355.45;110637;1258;20766;-55
2022/04/18 09:40:14;;;;;;;;;4377.50;4377.50;;;;;22.28;33.05;101359.70;110729;1258;23054;-56
2022/04/18 09:42:41;;;;;;;;;3174.00;3151.00;;;;;22.22;31.34;101358.73;110787;1258;19824;-55
2022/04/18 09:45:09;;;;;;;;;449.50;379.75;;;;;22.04;29.15;101351.60;110704;1258;20298;-56
2022/04/18 09:47:37;;;;;;;;;319.50;264.00;;;;;21.93;28.31;101344.30;110745;1258;19488;-53
2022/04/18 09:50:04;;;;;;;;;219.25;183.25;;;;;21.89;27.65;101342.73;110763;1258;23020;-55
2022/04/18 09:52:31;;;;;;;;;146.75;126.25;;;;;21.71;26.71;101334.86;110651;1258;23510;-55
2022/04/18 09:54:59;;;;;;;;;152.33;134.00;;;;;21.58;25.82;101338.64;110746;1258;19431;-56
2022/04/18 09:57:26;;;;;;;;;102.67;86.33;;;;;21.51;25.34;101338.14;110775;1258;19806;-53
2022/04/18 09:59:54;;;;;;;;;90.33;68.00;;;;;21.53;24.92;101331.05;110738;1258;20305;-56
2022/04/18 10:02:21;;;;;;;;;83.50;61.00;;;;;21.55;24.69;101326.70;110646;1258;24816;-53
2022/04/18 10:04:49;;;;;;;;;82.67;61.67;;;;;21.44;24.43;101322.82;110713;1258;19741;-56
2022/04/18 10:07:16;;;;;;;;;75.00;58.00;;;;;21.34;24.97;101326.98;110506;1259;20398;-54
2022/04/18 10:09:44;;;;;;;;;71.00;57.00;;;;;21.26;25.16;101318.55;110778;1258;23679;-55
2022/04/18 10:12:11;;;;;;;;;70.33;52.67;;;;;21.30;25.79;101310.23;110685;1258;19580;-54
2022/04/18 10:14:38;;;;;;;;;61.67;50.00;;;;;21.26;25.78;101314.94;110595;1258;20514;-56
2022/04/18 10:17:06;;;;;;;;;53.67;45.00;;;;;21.19;25.71;101312.43;110750;1259;19402;-55
2022/04/18 10:19:33;;;;;;;;;49.67;42.33;;;;;21.17;25.56;101307.14;110766;1258;19812;-54
2022/04/18 10:22:00;;;;;;;;;41.00;37.00;;;;;21.19;25.41;101302.77;110506;1259;20321;-59
2022/04/18 10:24:28;;;;;;;;;36.50;33.50;;;;;21.16;25.46;101295.14;110816;1258;23123;-54
2022/04/18 10:26:55;;;;;;;;;33.33;31.00;;;;;21.14;25.49;101297.91;110765;1258;19595;-55
2022/04/18 10:29:23;;;;;;;;;36.50;32.50;;;;;21.12;25.48;101287.67;110771;1258;20490;-58
2022/04/18 10:31:50;;;;;;;;;25.00;22.50;;;;;21.07;25.57;101290.73;110776;1258;22429;-56
2022/04/18 10:34:17;;;;;;;;;22.00;20.33;;;;;21.06;25.37;101285.59;110752;1258;19550;-56
2022/04/18 10:36:45;;;;;;;;;24.00;21.33;;;;;21.07;25.28;101279.11;110826;1258;20333;-53
2022/04/18 10:39:12;;;;;;;;;19.33;18.00;;;;;21.09;25.49;101279.08;110728;1258;19104;-56
2022/04/18 10:41:39;;;;;;;;;24.00;21.00;;;;;21.08;25.21;101275.61;110799;1258;19593;-56
2022/04/18 10:44:08;;;;;;;;;21.33;16.67;;;;;21.01;24.99;101279.23;110722;1258;20210;-53
2022/04/18 10:46:35;;;;;;;;;19.00;17.00;;;;;20.99;25.06;101273.87;110714;1258;23569;-54
2022/04/18 10:49:03;;;;;;;;;14.33;14.33;;;;;20.97;24.90;101268.91;110493;1259;23717;-55
2022/04/18 10:51:31;;;;;;;;;15.00;12.33;;;;;20.97;24.70;101265.71;110537;1258;22038;-51
2022/04/18 10:53:58;;;;;;;;;12.00;12.00;;;;;20.99;24.93;101269.27;110757;1258;19161;-51
2022/04/18 10:56:25;;;;;;;;;16.00;13.00;;;;;20.98;24.76;101271.41;110759;1258;23578;-52
2022/04/18 10:58:53;;;;;;;;;13.50;10.00;;;;;20.89;24.73;101265.70;110796;1258;20261;-51
2022/04/18 11:01:20;;;;;;;;;9.00;9.00;;;;;20.84;24.71;101257.34;110487;1258;22967;-51
2022/04/18 11:03:50;;;;;;;;;9.33;9.00;;;;;20.88;24.41;101253.61;110822;1258;19526;-52
2022/04/18 11:06:17;;;;;;;;;10.00;9.00;;;;;20.90;24.30;101242.34;110776;1258;20261;-57
2022/04/18 11:08:45;;;;;;;;;12.00;9.00;;;;;20.95;24.49;101240.34;110743;1258;19109;-56
2022/04/18 11:11:12;;;;;;;;;12.00;10.00;;;;;20.95;24.25;101236.42;110782;1258;19652;-56
2022/04/18 11:13:39;;;;;;;;;9.00;8.00;;;;;20.96;24.18;101234.04;110778;1258;20340;-55
2022/04/18 11:16:07;;;;;;;;;10.67;10.00;;;;;20.96;24.19;101234.80;110545;1258;23698;-54
2022/04/18 11:18:34;;;;;;;;;13.00;10.00;;;;;20.97;24.09;101234.62;110810;1258;19807;-56
2022/04/18 11:21:01;;;;;;;;;9.50;9.50;;;;;21.02;24.16;101231.20;110742;1258;23684;-56
2022/04/18 11:23:30;;;;;;;;;10.00;10.00;;;;;21.04;24.42;101229.36;110759;1258;19217;-56
2022/04/18 11:25:57;;;;;;;;;12.00;9.67;;;;;21.03;24.22;101216.17;110730;1258;22919;-58
2022/04/18 11:28:26;;;;;;;;;10.00;9.00;;;;;21.04;24.54;101215.11;110617;1258;20328;-53